OAL855 LGKA-LGAV
Flight info
| Callsign | OAL855 |
|---|---|
| Flight time | 1h 32m |
| Altitude | 13000 |
| Route | KAS W58 SKP M749 ROPOX |
| Aircraft | C208/L-SDFGR/C |
Departure
| Time | 2026-05-04 07:57 |
|---|---|
| Airport | Kastoria National Airport Aristotle (LGKA) |
Arrival
| Time | 2026-05-04 09:29 |
|---|---|
| Airport | Athens Eleftherios Venizelos International Airport (LGAV) |
| Time | Latitude | Longitude | Altitude | Speed | Heading |
|---|---|---|---|---|---|
| 2026-05-04 07:38 | 40.44930 | 21.27332 | 2216 ft | 0 kts | 303° |
| 2026-05-04 07:54 | 40.45335 | 21.26877 | 2216 ft | 10 kts | 309° |
| 2026-05-04 07:55 | 40.45330 | 21.26845 | 2216 ft | 5 kts | 193° |
| 2026-05-04 07:55 | 40.45303 | 21.26880 | 2215 ft | 5 kts | 124° |
| 2026-05-04 07:55 | 40.45299 | 21.26888 | 2216 ft | 0 kts | 123° |
| 2026-05-04 07:55 | 40.45285 | 21.26918 | 2216 ft | 16 kts | 123° |
| 2026-05-04 07:56 | 40.45133 | 21.27201 | 2210 ft | 59 kts | 126° |
| 2026-05-04 07:56 | 40.44829 | 21.27766 | 2208 ft | 92 kts | 129° |
| 2026-05-04 07:56 | 40.44421 | 21.28420 | 2354 ft | 94 kts | 126° |
| 2026-05-04 07:56 | 40.44007 | 21.29153 | 2417 ft | 107 kts | 121° |
| 2026-05-04 07:57 | 40.43565 | 21.30023 | 2545 ft | 117 kts | 120° |
| 2026-05-04 07:57 | 40.43160 | 21.30925 | 2744 ft | 115 kts | 114° |
| 2026-05-04 07:57 | 40.42774 | 21.31895 | 2875 ft | 125 kts | 115° |
| 2026-05-04 07:57 | 40.42359 | 21.32871 | 3125 ft | 121 kts | 115° |
| 2026-05-04 07:58 | 40.41935 | 21.33812 | 3422 ft | 119 kts | 117° |
| 2026-05-04 07:58 | 40.41563 | 21.34821 | 3674 ft | 126 kts | 107° |
| 2026-05-04 07:58 | 40.41444 | 21.35935 | 3943 ft | 124 kts | 91° |
| 2026-05-04 07:58 | 40.41350 | 21.37052 | 4215 ft | 118 kts | 86° |
| 2026-05-04 07:59 | 40.41333 | 21.38151 | 4393 ft | 124 kts | 90° |
| 2026-05-04 07:59 | 40.41222 | 21.39282 | 4641 ft | 126 kts | 95° |
| 2026-05-04 07:59 | 40.41005 | 21.40376 | 4940 ft | 121 kts | 102° |
| 2026-05-04 07:59 | 40.40759 | 21.41474 | 4897 ft | 133 kts | 100° |
| 2026-05-04 08:00 | 40.40496 | 21.42643 | 5199 ft | 129 kts | 103° |
| 2026-05-04 08:00 | 40.40205 | 21.43723 | 5511 ft | 126 kts | 104° |
| 2026-05-04 08:00 | 40.39923 | 21.44840 | 5676 ft | 132 kts | 101° |
| 2026-05-04 08:02 | 40.37824 | 21.53520 | 7218 ft | 141 kts | 102° |
| 2026-05-04 08:02 | 40.37499 | 21.54725 | 7421 ft | 143 kts | 107° |
| 2026-05-04 08:02 | 40.36916 | 21.55812 | 7610 ft | 143 kts | 111° |
| 2026-05-04 08:03 | 40.36536 | 21.56974 | 7815 ft | 138 kts | 102° |
| 2026-05-04 08:03 | 40.36187 | 21.58124 | 8014 ft | 133 kts | 102° |
| 2026-05-04 08:03 | 40.35856 | 21.59251 | 8207 ft | 133 kts | 101° |
| 2026-05-04 08:03 | 40.35519 | 21.60392 | 8414 ft | 134 kts | 101° |
| 2026-05-04 08:04 | 40.35186 | 21.61530 | 8617 ft | 136 kts | 102° |
| 2026-05-04 08:04 | 40.34844 | 21.62684 | 8823 ft | 135 kts | 102° |
| 2026-05-04 08:04 | 40.34506 | 21.63824 | 9024 ft | 133 kts | 101° |
| 2026-05-04 08:04 | 40.34176 | 21.64941 | 9237 ft | 129 kts | 100° |
| 2026-05-04 08:05 | 40.33852 | 21.66044 | 9442 ft | 130 kts | 101° |
| 2026-05-04 08:05 | 40.33528 | 21.67140 | 9647 ft | 127 kts | 99° |
| 2026-05-04 08:05 | 40.33215 | 21.68212 | 9845 ft | 126 kts | 99° |
| 2026-05-04 08:05 | 40.32900 | 21.69281 | 10060 ft | 125 kts | 99° |
| 2026-05-04 08:06 | 40.32588 | 21.70332 | 10238 ft | 123 kts | 99° |
| 2026-05-04 08:06 | 40.32282 | 21.71364 | 10423 ft | 120 kts | 99° |
| 2026-05-04 08:06 | 40.31987 | 21.72363 | 10605 ft | 117 kts | 98° |
| 2026-05-04 08:06 | 40.31695 | 21.73346 | 10781 ft | 114 kts | 97° |
| 2026-05-04 08:08 | 40.29755 | 21.79912 | 11829 ft | 111 kts | 96° |
| 2026-05-04 08:08 | 40.29475 | 21.80853 | 11954 ft | 112 kts | 96° |
| 2026-05-04 08:10 | 40.24832 | 21.87566 | 12902 ft | 145 kts | 135° |
| 2026-05-04 08:11 | 40.24008 | 21.88344 | 13013 ft | 147 kts | 135° |
| 2026-05-04 08:11 | 40.22240 | 21.90024 | 13025 ft | 167 kts | 136° |
| 2026-05-04 08:11 | 40.21276 | 21.90936 | 13029 ft | 175 kts | 137° |
| 2026-05-04 08:12 | 40.20266 | 21.91890 | 13026 ft | 182 kts | 137° |
| 2026-05-04 08:12 | 40.19230 | 21.92870 | 13024 ft | 185 kts | 137° |
| 2026-05-04 08:12 | 40.18174 | 21.93868 | 13025 ft | 189 kts | 138° |
| 2026-05-04 08:12 | 40.17096 | 21.94890 | 13021 ft | 193 kts | 138° |
| 2026-05-04 08:13 | 40.16005 | 21.95921 | 13023 ft | 195 kts | 138° |
| 2026-05-04 08:13 | 40.14908 | 21.96958 | 13024 ft | 195 kts | 137° |
| 2026-05-04 08:13 | 40.13820 | 21.97989 | 13015 ft | 197 kts | 138° |
| 2026-05-04 08:13 | 40.12707 | 21.99039 | 13022 ft | 197 kts | 138° |
| 2026-05-04 08:14 | 40.11604 | 22.00114 | 13020 ft | 196 kts | 135° |
| 2026-05-04 08:14 | 40.10517 | 22.01200 | 13017 ft | 197 kts | 138° |
| 2026-05-04 08:14 | 40.09413 | 22.02265 | 13012 ft | 197 kts | 137° |
| 2026-05-04 08:16 | 40.01802 | 22.09767 | 13009 ft | 195 kts | 137° |
| 2026-05-04 08:16 | 40.00719 | 22.10833 | 13008 ft | 194 kts | 137° |
| 2026-05-04 08:16 | 39.99643 | 22.11894 | 13003 ft | 193 kts | 137° |
| 2026-05-04 08:17 | 39.98573 | 22.12943 | 12999 ft | 191 kts | 137° |
| 2026-05-04 08:17 | 39.97515 | 22.13982 | 12997 ft | 189 kts | 137° |
| 2026-05-04 08:17 | 39.96466 | 22.15018 | 12996 ft | 189 kts | 137° |
| 2026-05-04 08:17 | 39.95417 | 22.16048 | 13000 ft | 188 kts | 137° |
| 2026-05-04 08:19 | 39.88115 | 22.23205 | 13003 ft | 186 kts | 138° |
| 2026-05-04 08:19 | 39.87084 | 22.24221 | 13003 ft | 186 kts | 137° |
| 2026-05-04 08:20 | 39.86046 | 22.25237 | 13005 ft | 187 kts | 138° |
| 2026-05-04 08:20 | 39.85008 | 22.26251 | 12994 ft | 185 kts | 139° |
| 2026-05-04 08:20 | 39.83985 | 22.27252 | 13005 ft | 183 kts | 139° |
| 2026-05-04 08:20 | 39.82981 | 22.28233 | 13003 ft | 183 kts | 137° |
| 2026-05-04 08:21 | 39.81960 | 22.29236 | 13006 ft | 184 kts | 138° |
| 2026-05-04 08:21 | 39.80932 | 22.30236 | 13004 ft | 185 kts | 138° |
| 2026-05-04 08:21 | 39.79902 | 22.31240 | 13006 ft | 185 kts | 138° |
| 2026-05-04 08:21 | 39.78872 | 22.32247 | 13010 ft | 185 kts | 138° |
| 2026-05-04 08:22 | 39.77841 | 22.33254 | 13009 ft | 186 kts | 138° |
| 2026-05-04 08:22 | 39.76807 | 22.34263 | 13017 ft | 186 kts | 138° |
| 2026-05-04 08:24 | 39.69530 | 22.41352 | 13014 ft | 187 kts | 138° |
| 2026-05-04 08:24 | 39.68485 | 22.42368 | 13020 ft | 187 kts | 139° |
| 2026-05-04 08:24 | 39.67442 | 22.43382 | 13022 ft | 187 kts | 138° |
| 2026-05-04 08:24 | 39.66398 | 22.44396 | 13018 ft | 186 kts | 139° |
| 2026-05-04 08:25 | 39.65360 | 22.45408 | 13023 ft | 187 kts | 139° |
| 2026-05-04 08:25 | 39.64304 | 22.46398 | 13018 ft | 188 kts | 146° |
| 2026-05-04 08:25 | 39.63144 | 22.47194 | 13017 ft | 188 kts | 149° |
| 2026-05-04 08:25 | 39.62000 | 22.47976 | 13019 ft | 188 kts | 148° |
| 2026-05-04 08:26 | 39.60848 | 22.48782 | 13019 ft | 188 kts | 148° |
| 2026-05-04 08:27 | 39.52832 | 22.54346 | 13018 ft | 188 kts | 148° |
| 2026-05-04 08:28 | 39.51674 | 22.55147 | 13024 ft | 188 kts | 148° |
| 2026-05-04 08:28 | 39.50517 | 22.55950 | 13026 ft | 188 kts | 148° |
| 2026-05-04 08:28 | 39.49364 | 22.56750 | 13025 ft | 188 kts | 148° |
| 2026-05-04 08:28 | 39.48209 | 22.57549 | 13022 ft | 188 kts | 148° |
| 2026-05-04 08:29 | 39.47072 | 22.58335 | 13021 ft | 187 kts | 148° |
| 2026-05-04 08:29 | 39.45922 | 22.59129 | 13023 ft | 188 kts | 148° |
| 2026-05-04 08:29 | 39.44811 | 22.60022 | 13024 ft | 188 kts | 142° |
| 2026-05-04 08:31 | 39.37181 | 22.66459 | 13022 ft | 187 kts | 143° |
| 2026-05-04 08:33 | 39.29527 | 22.72896 | 13023 ft | 187 kts | 143° |
| 2026-05-04 08:33 | 39.28437 | 22.73813 | 13021 ft | 187 kts | 144° |
| 2026-05-04 08:35 | 39.21631 | 22.80942 | 13024 ft | 173 kts | 94° |
| 2026-05-04 08:35 | 39.21543 | 22.82469 | 13020 ft | 171 kts | 85° |
| 2026-05-04 08:35 | 39.21481 | 22.83978 | 13022 ft | 170 kts | 86° |
| 2026-05-04 08:35 | 39.21415 | 22.85501 | 13023 ft | 170 kts | 86° |
| 2026-05-04 08:37 | 39.21042 | 22.94590 | 13020 ft | 169 kts | 86° |
| 2026-05-04 08:37 | 39.20979 | 22.96102 | 13020 ft | 169 kts | 86° |
| 2026-05-04 08:37 | 39.20916 | 22.97582 | 13126 ft | 163 kts | 86° |
| 2026-05-04 08:38 | 39.20857 | 22.99046 | 13127 ft | 164 kts | 86° |
| 2026-05-04 08:38 | 39.20795 | 23.00521 | 13124 ft | 165 kts | 86° |
| 2026-05-04 08:38 | 39.20733 | 23.02004 | 13125 ft | 166 kts | 86° |
| 2026-05-04 08:40 | 39.20287 | 23.12455 | 13133 ft | 167 kts | 86° |
| 2026-05-04 08:40 | 39.20222 | 23.13955 | 13132 ft | 168 kts | 86° |
| 2026-05-04 08:40 | 39.20159 | 23.15438 | 13125 ft | 168 kts | 86° |
| 2026-05-04 08:41 | 39.20093 | 23.16939 | 13124 ft | 168 kts | 86° |
| 2026-05-04 08:41 | 39.20028 | 23.18440 | 13121 ft | 168 kts | 86° |
| 2026-05-04 08:41 | 39.19962 | 23.19943 | 13122 ft | 168 kts | 86° |
| 2026-05-04 08:41 | 39.19896 | 23.21452 | 13124 ft | 170 kts | 86° |
| 2026-05-04 08:42 | 39.19830 | 23.22976 | 13127 ft | 170 kts | 86° |
| 2026-05-04 08:42 | 39.19763 | 23.24500 | 13123 ft | 170 kts | 86° |
| 2026-05-04 08:42 | 39.19695 | 23.26024 | 13119 ft | 170 kts | 86° |
| 2026-05-04 08:42 | 39.19650 | 23.27033 | 13122 ft | 170 kts | 86° |
| 2026-05-04 08:43 | 39.19561 | 23.29057 | 13119 ft | 170 kts | 87° |
| 2026-05-04 08:43 | 39.19490 | 23.30585 | 13119 ft | 171 kts | 86° |
| 2026-05-04 08:43 | 39.19426 | 23.32121 | 13116 ft | 171 kts | 86° |
| 2026-05-04 08:43 | 39.19382 | 23.33139 | 13120 ft | 172 kts | 86° |
| 2026-05-04 08:44 | 39.19313 | 23.34679 | 13115 ft | 172 kts | 86° |
| 2026-05-04 08:44 | 39.19240 | 23.36214 | 13113 ft | 171 kts | 86° |
| 2026-05-04 08:46 | 39.18756 | 23.46865 | 13115 ft | 172 kts | 86° |
| 2026-05-04 08:46 | 39.18686 | 23.48384 | 13115 ft | 171 kts | 86° |
| 2026-05-04 08:46 | 39.18621 | 23.49917 | 13113 ft | 173 kts | 86° |
| 2026-05-04 08:46 | 39.18543 | 23.51467 | 13109 ft | 173 kts | 86° |
| 2026-05-04 08:47 | 39.18472 | 23.53011 | 13110 ft | 172 kts | 86° |
| 2026-05-04 08:47 | 39.18402 | 23.54547 | 13109 ft | 171 kts | 86° |
| 2026-05-04 08:47 | 39.18332 | 23.56075 | 13107 ft | 170 kts | 86° |
| 2026-05-04 08:47 | 39.18261 | 23.57600 | 13107 ft | 170 kts | 86° |
| 2026-05-04 08:48 | 39.18182 | 23.59118 | 13106 ft | 171 kts | 90° |
| 2026-05-04 08:48 | 39.17733 | 23.60545 | 13099 ft | 180 kts | 121° |
| 2026-05-04 08:48 | 39.16772 | 23.61607 | 13098 ft | 186 kts | 152° |
| 2026-05-04 08:48 | 39.15518 | 23.61997 | 13105 ft | 186 kts | 174° |
| 2026-05-04 08:49 | 39.14232 | 23.62174 | 13114 ft | 185 kts | 173° |
| 2026-05-04 08:50 | 39.06522 | 23.63317 | 13116 ft | 186 kts | 173° |
| 2026-05-04 08:50 | 39.05231 | 23.63509 | 13119 ft | 186 kts | 173° |
| 2026-05-04 08:51 | 39.03941 | 23.63699 | 13120 ft | 186 kts | 173° |
| 2026-05-04 08:51 | 39.02653 | 23.63890 | 13118 ft | 186 kts | 173° |
| 2026-05-04 08:51 | 39.01361 | 23.64081 | 13119 ft | 186 kts | 173° |
| 2026-05-04 08:51 | 39.00072 | 23.64271 | 13121 ft | 187 kts | 174° |
| 2026-05-04 08:52 | 38.98797 | 23.64460 | 13122 ft | 187 kts | 173° |
| 2026-05-04 08:52 | 38.97507 | 23.64650 | 13124 ft | 187 kts | 173° |
| 2026-05-04 08:52 | 38.96214 | 23.64842 | 13123 ft | 187 kts | 173° |
| 2026-05-04 08:52 | 38.94921 | 23.65032 | 13128 ft | 187 kts | 174° |
| 2026-05-04 08:53 | 38.93628 | 23.65223 | 13126 ft | 187 kts | 174° |
| 2026-05-04 08:54 | 38.84595 | 23.66553 | 13131 ft | 187 kts | 174° |
| 2026-05-04 08:55 | 38.83302 | 23.66743 | 13134 ft | 187 kts | 174° |
| 2026-05-04 08:55 | 38.82005 | 23.66934 | 13132 ft | 187 kts | 174° |
| 2026-05-04 08:55 | 38.80711 | 23.67124 | 13132 ft | 187 kts | 174° |
| 2026-05-04 08:55 | 38.79413 | 23.67315 | 13132 ft | 187 kts | 174° |
| 2026-05-04 08:57 | 38.70283 | 23.68653 | 13134 ft | 194 kts | 175° |
| 2026-05-04 09:01 | 38.51831 | 23.71352 | 13123 ft | 190 kts | 174° |
| 2026-05-04 09:01 | 38.50513 | 23.71541 | 13130 ft | 190 kts | 174° |
| 2026-05-04 09:01 | 38.49196 | 23.71734 | 13132 ft | 191 kts | 174° |
| 2026-05-04 09:01 | 38.47874 | 23.71926 | 13129 ft | 191 kts | 174° |
| 2026-05-04 09:02 | 38.46569 | 23.72116 | 13127 ft | 191 kts | 174° |
| 2026-05-04 09:02 | 38.45248 | 23.72309 | 13128 ft | 191 kts | 174° |
| 2026-05-04 09:02 | 38.43926 | 23.72501 | 13131 ft | 190 kts | 174° |
| 2026-05-04 09:02 | 38.42622 | 23.72691 | 13128 ft | 190 kts | 174° |
| 2026-05-04 09:03 | 38.41311 | 23.72882 | 13128 ft | 189 kts | 174° |
| 2026-05-04 09:03 | 38.39999 | 23.73070 | 13128 ft | 190 kts | 174° |
| 2026-05-04 09:03 | 38.38686 | 23.73262 | 13126 ft | 189 kts | 174° |
| 2026-05-04 09:03 | 38.37379 | 23.73453 | 13125 ft | 189 kts | 174° |
| 2026-05-04 09:04 | 38.36075 | 23.73642 | 13124 ft | 188 kts | 174° |
| 2026-05-04 09:04 | 38.34793 | 23.73828 | 13123 ft | 188 kts | 174° |
| 2026-05-04 09:04 | 38.33497 | 23.74016 | 13122 ft | 187 kts | 174° |
| 2026-05-04 09:04 | 38.32197 | 23.74204 | 13125 ft | 189 kts | 174° |
| 2026-05-04 09:05 | 38.30891 | 23.74393 | 13127 ft | 189 kts | 174° |
| 2026-05-04 09:05 | 38.29580 | 23.74583 | 13126 ft | 189 kts | 174° |
| 2026-05-04 09:05 | 38.28265 | 23.74773 | 13129 ft | 190 kts | 174° |
| 2026-05-04 09:05 | 38.26950 | 23.74962 | 13126 ft | 189 kts | 174° |
| 2026-05-04 09:06 | 38.25641 | 23.75153 | 13124 ft | 189 kts | 174° |
| 2026-05-04 09:07 | 38.16438 | 23.75885 | 12903 ft | 190 kts | 210° |
| 2026-05-04 09:08 | 38.15339 | 23.75009 | 12719 ft | 185 kts | 220° |
| 2026-05-04 09:08 | 38.14270 | 23.74101 | 12531 ft | 184 kts | 218° |
| 2026-05-04 09:08 | 38.13201 | 23.73211 | 12347 ft | 183 kts | 219° |
| 2026-05-04 09:08 | 38.12140 | 23.72323 | 12166 ft | 183 kts | 218° |
| 2026-05-04 09:09 | 38.11075 | 23.71425 | 11981 ft | 183 kts | 220° |
| 2026-05-04 09:09 | 38.10012 | 23.70531 | 11816 ft | 184 kts | 219° |
| 2026-05-04 09:09 | 38.08955 | 23.69646 | 11639 ft | 183 kts | 219° |
| 2026-05-04 09:09 | 38.07893 | 23.68754 | 11490 ft | 182 kts | 219° |
| 2026-05-04 09:10 | 38.06830 | 23.67861 | 11274 ft | 185 kts | 219° |
| 2026-05-04 09:10 | 38.05753 | 23.66957 | 11123 ft | 185 kts | 219° |
| 2026-05-04 09:10 | 38.04678 | 23.66059 | 10970 ft | 184 kts | 219° |
| 2026-05-04 09:10 | 38.03611 | 23.65165 | 10821 ft | 182 kts | 219° |
| 2026-05-04 09:11 | 38.02556 | 23.64281 | 10671 ft | 182 kts | 219° |
| 2026-05-04 09:11 | 38.01504 | 23.63401 | 10521 ft | 179 kts | 219° |
| 2026-05-04 09:11 | 38.00460 | 23.62525 | 10377 ft | 180 kts | 219° |
| 2026-05-04 09:11 | 37.99411 | 23.61647 | 10221 ft | 181 kts | 219° |
| 2026-05-04 09:12 | 37.98375 | 23.60780 | 10083 ft | 180 kts | 219° |
| 2026-05-04 09:12 | 37.97330 | 23.59907 | 9925 ft | 180 kts | 219° |
| 2026-05-04 09:14 | 37.90080 | 23.53854 | 8800 ft | 176 kts | 219° |
| 2026-05-04 09:14 | 37.89055 | 23.52999 | 8643 ft | 176 kts | 219° |
| 2026-05-04 09:14 | 37.88034 | 23.52149 | 8487 ft | 175 kts | 219° |
| 2026-05-04 09:14 | 37.87018 | 23.51301 | 8331 ft | 174 kts | 219° |
| 2026-05-04 09:15 | 37.86008 | 23.50461 | 8174 ft | 173 kts | 219° |
| 2026-05-04 09:15 | 37.85014 | 23.49633 | 8017 ft | 172 kts | 219° |
| 2026-05-04 09:15 | 37.84029 | 23.48814 | 7951 ft | 162 kts | 219° |
| 2026-05-04 09:15 | 37.83103 | 23.48048 | 7940 ft | 161 kts | 219° |
| 2026-05-04 09:17 | 37.74086 | 23.43704 | 8263 ft | 178 kts | 176° |
| 2026-05-04 09:18 | 37.72932 | 23.44351 | 8059 ft | 197 kts | 135° |
| 2026-05-04 09:18 | 37.72299 | 23.45845 | 8020 ft | 189 kts | 94° |
| 2026-05-04 09:18 | 37.72358 | 23.47391 | 8216 ft | 171 kts | 82° |
| 2026-05-04 09:18 | 37.72034 | 23.48764 | 8672 ft | 141 kts | 87° |
| 2026-05-04 09:19 | 37.72200 | 23.49896 | 8884 ft | 133 kts | 60° |
| 2026-05-04 09:19 | 37.72711 | 23.50893 | 8886 ft | 135 kts | 34° |
| 2026-05-04 09:19 | 37.73427 | 23.51724 | 8804 ft | 148 kts | 37° |
| 2026-05-04 09:19 | 37.74126 | 23.52722 | 8740 ft | 157 kts | 47° |
| 2026-05-04 09:20 | 37.74662 | 23.53953 | 8640 ft | 162 kts | 62° |
| 2026-05-04 09:20 | 37.75014 | 23.55339 | 8424 ft | 172 kts | 68° |
| 2026-05-04 09:20 | 37.75249 | 23.56835 | 8323 ft | 171 kts | 73° |
| 2026-05-04 09:20 | 37.75363 | 23.58321 | 8171 ft | 174 kts | 79° |
| 2026-05-04 09:21 | 37.75458 | 23.59847 | 8004 ft | 174 kts | 78° |
| 2026-05-04 09:21 | 37.75507 | 23.61375 | 7873 ft | 174 kts | 83° |
| 2026-05-04 09:21 | 37.75573 | 23.62895 | 7736 ft | 172 kts | 77° |
| 2026-05-04 09:21 | 37.75639 | 23.64417 | 7579 ft | 174 kts | 82° |
| 2026-05-04 09:22 | 37.75661 | 23.65947 | 7442 ft | 174 kts | 83° |
| 2026-05-04 09:22 | 37.75669 | 23.67471 | 7309 ft | 173 kts | 82° |
| 2026-05-04 09:22 | 37.75746 | 23.68967 | 7172 ft | 171 kts | 76° |
| 2026-05-04 09:22 | 37.75970 | 23.70445 | 7071 ft | 174 kts | 70° |
| 2026-05-04 09:23 | 37.76244 | 23.71919 | 7060 ft | 170 kts | 70° |
| 2026-05-04 09:23 | 37.76515 | 23.73382 | 6873 ft | 174 kts | 71° |
| 2026-05-04 09:23 | 37.76830 | 23.74870 | 6687 ft | 173 kts | 63° |
| 2026-05-04 09:23 | 37.77285 | 23.76260 | 6588 ft | 168 kts | 58° |
| 2026-05-04 09:25 | 37.82635 | 23.82816 | 4036 ft | 153 kts | 33° |
| 2026-05-04 09:25 | 37.83455 | 23.83665 | 3694 ft | 152 kts | 38° |
| 2026-05-04 09:26 | 37.84241 | 23.84569 | 3214 ft | 154 kts | 38° |
| 2026-05-04 09:26 | 37.85079 | 23.85436 | 2713 ft | 155 kts | 32° |
| 2026-05-04 09:26 | 37.85969 | 23.86195 | 2300 ft | 152 kts | 30° |
| 2026-05-04 09:26 | 37.86857 | 23.86885 | 1896 ft | 152 kts | 27° |
| 2026-05-04 09:27 | 37.87760 | 23.87555 | 1510 ft | 150 kts | 31° |
| 2026-05-04 09:27 | 37.88548 | 23.88375 | 1175 ft | 146 kts | 40° |
| 2026-05-04 09:27 | 37.89304 | 23.89197 | 956 ft | 136 kts | 33° |
| 2026-05-04 09:27 | 37.90023 | 23.89889 | 854 ft | 126 kts | 31° |
| 2026-05-04 09:28 | 37.90711 | 23.90493 | 728 ft | 110 kts | 31° |
| 2026-05-04 09:28 | 37.91245 | 23.91058 | 555 ft | 87 kts | 32° |
| 2026-05-04 09:28 | 37.91701 | 23.91464 | 425 ft | 76 kts | 30° |
| 2026-05-04 09:28 | 37.92125 | 23.91866 | 362 ft | 75 kts | 28° |
| 2026-05-04 09:29 | 37.92535 | 23.92262 | 318 ft | 71 kts | 26° |
| 2026-05-04 09:29 | 37.92898 | 23.92608 | 299 ft | 59 kts | 27° |
| 2026-05-04 09:29 | 37.93175 | 23.92847 | 288 ft | 38 kts | 34° |
| 2026-05-04 09:29 | 37.93294 | 23.92971 | 288 ft | 24 kts | 45° |
| 2026-05-04 09:30 | 37.93294 | 23.93099 | 293 ft | 7 kts | 129° |
| 2026-05-04 09:30 | 37.93290 | 23.93105 | 292 ft | 1 kts | 128° |
| 2026-05-04 09:30 | 37.93279 | 23.93124 | 293 ft | 4 kts | 127° |
| 2026-05-04 09:30 | 37.93258 | 23.93164 | 298 ft | 8 kts | 112° |
| 2026-05-04 09:31 | 37.93245 | 23.93220 | 297 ft | 12 kts | 105° |
| 2026-05-04 09:31 | 37.93229 | 23.93325 | 298 ft | 15 kts | 65° |
| 2026-05-04 09:31 | 37.93319 | 23.93418 | 300 ft | 17 kts | 39° |
| 2026-05-04 09:31 | 37.93371 | 23.93535 | 299 ft | 18 kts | 115° |
| 2026-05-04 09:32 | 37.93292 | 23.93686 | 299 ft | 23 kts | 140° |
| 2026-05-04 09:32 | 37.93186 | 23.93856 | 300 ft | 26 kts | 131° |
| 2026-05-04 09:34 | 37.92791 | 23.94324 | 302 ft | 9 kts | 216° |
| 2026-05-04 09:34 | 37.92745 | 23.94281 | 300 ft | 7 kts | 216° |
| 2026-05-04 09:34 | 37.92713 | 23.94251 | 301 ft | 5 kts | 217° |
| 2026-05-04 09:34 | 37.92692 | 23.94231 | 302 ft | 3 kts | 217° |
| 2026-05-04 09:35 | 37.92679 | 23.94218 | 300 ft | 1 kts | 216° |
| 2026-05-04 09:35 | 37.92678 | 23.94217 | 303 ft | 0 kts | 216° |
| 2026-05-04 09:35 | 37.92661 | 23.94199 | 300 ft | 8 kts | 220° |
| 2026-05-04 09:35 | 37.92593 | 23.94131 | 301 ft | 15 kts | 218° |
| 2026-05-04 09:37 | 37.92544 | 23.93972 | 300 ft | 0 kts | 42° |